Time;durP1;ratioP1;P1;durP2;ratioP2;P2;SDS_P1;SDS_P2;PMS_P1;PMS_P2;Temp;Humidity;BMP_temperature;BMP_pressure;BME280_temperature;BME280_humidity;BME280_pressure;Samples;Min_cycle;Max_cycle;Signal;HPM_P1;HPM_P2
2023/07/08 00:02:09;;;;;;;1999.90;999.90;;;;;;;30.31;28.79;101764.53;5067283;28;20372;-69
2023/07/08 00:04:34;;;;;;;1999.90;999.90;;;;;;;30.08;28.87;101767.22;5068088;28;20040;-69
2023/07/08 00:07:00;;;;;;;1999.90;999.90;;;;;;;30.32;28.82;101760.88;5068118;28;20106;-70
2023/07/08 00:09:25;;;;;;;1999.90;999.90;;;;;;;30.71;28.62;101754.13;5067742;28;20064;-69
2023/07/08 00:11:51;;;;;;;1999.90;999.90;;;;;;;30.27;28.48;101751.31;5067822;28;20116;-69
2023/07/08 00:14:16;;;;;;;1999.90;999.90;;;;;;;30.32;28.48;101750.09;5068108;28;20020;-69
2023/07/08 00:16:42;;;;;;;1999.90;999.90;;;;;;;30.22;28.73;101758.06;5067365;28;20123;-69
2023/07/08 00:19:09;;;;;;;1999.90;999.90;;;;;;;30.44;28.58;101743.75;5067636;28;20126;-69
2023/07/08 00:21:34;;;;;;;1999.90;999.90;;;;;;;30.38;28.69;101746.91;5069538;28;20028;-69
2023/07/08 00:24:01;;;;;;;1999.90;999.90;;;;;;;30.74;27.98;101736.84;5066656;28;20028;-69
2023/07/08 00:26:29;;;;;;;1999.90;999.90;;;;;;;29.67;29.75;101747.03;5068007;28;20029;-69
2023/07/08 00:28:56;;;;;;;1999.90;999.90;;;;;;;29.91;29.27;101745.16;5067875;28;20644;-69
2023/07/08 00:31:26;;;;;;;1999.90;999.90;;;;;;;30.01;29.41;101745.28;5067372;28;20107;-69
2023/07/08 00:33:55;;;;;;;1999.90;999.90;;;;;;;30.02;28.92;101746.13;5068755;28;20020;-69
2023/07/08 00:36:22;;;;;;;1999.90;999.90;;;;;;;29.60;29.77;101747.50;5068066;28;20032;-69
2023/07/08 00:38:50;;;;;;;1999.90;999.90;;;;;;;29.72;29.33;101750.22;5067214;28;20111;-68
2023/07/08 00:41:34;;;;;;;1999.90;999.90;;;;;;;30.41;28.63;101741.25;5067880;28;20060;-69
2023/07/08 00:44:00;;;;;;;1999.90;999.90;;;;;;;29.24;29.79;101741.25;5066562;28;20028;-69
2023/07/08 00:46:29;;;;;;;1999.90;999.90;;;;;;;29.95;28.87;101746.63;5067946;28;20035;-69
2023/07/08 00:49:34;;;;;;;1999.90;999.90;;;;;;;29.66;29.84;101739.91;5067413;28;20041;-69
2023/07/08 00:52:25;;;;;;;1999.90;999.90;;;;;;;29.83;28.88;101734.09;5066042;28;20190;-69
2023/07/08 00:55:08;;;;;;;1999.90;999.90;;;;;;;29.71;29.07;101732.34;5067093;28;20045;-68
2023/07/08 00:57:38;;;;;;;1999.90;999.90;;;;;;;30.07;28.91;101728.63;5068397;28;20480;-69
2023/07/08 01:00:08;;;;;;;1999.90;999.90;;;;;;;30.56;28.37;101723.88;5071075;28;20024;-69
2023/07/08 01:02:41;;;;;;;1999.90;999.90;;;;;;;30.51;28.73;101736.84;5071306;28;20103;-69
2023/07/08 01:05:14;;;;;;;1999.90;999.90;;;;;;;30.10;29.22;101728.41;5071349;28;20336;-69
2023/07/08 01:07:44;;;;;;;1999.90;999.90;;;;;;;30.20;28.74;101727.66;5071037;28;20502;-70
2023/07/08 01:10:19;;;;;;;1999.90;999.90;;;;;;;30.76;28.41;101722.25;5070420;28;20035;-69
2023/07/08 01:12:52;;;;;;;1999.90;999.90;;;;;;;30.57;29.10;101727.41;5071460;28;20050;-69
2023/07/08 01:15:18;;;;;;;1999.90;999.90;;;;;;;30.25;29.09;101725.44;5070799;28;20469;-69
2023/07/08 01:17:45;;;;;;;1999.90;999.90;;;;;;;30.23;28.99;101716.63;5070930;28;20025;-70
2023/07/08 01:20:13;;;;;;;1999.90;999.90;;;;;;;30.19;29.42;101717.88;5069585;28;20056;-70
2023/07/08 01:22:39;;;;;;;1999.90;999.90;;;;;;;30.32;29.59;101717.72;5071140;28;20440;-69
2023/07/08 01:25:06;;;;;;;1999.90;999.90;;;;;;;30.26;29.07;101719.94;5071590;28;20111;-69
2023/07/08 01:27:35;;;;;;;1999.90;999.90;;;;;;;30.09;29.53;101715.91;5071344;28;20033;-69
2023/07/08 01:30:03;;;;;;;1999.90;999.90;;;;;;;29.81;29.50;101716.31;5070429;28;20021;-70
2023/07/08 01:32:30;;;;;;;1999.90;999.90;;;;;;;29.74;30.28;101726.72;5070788;28;20036;-70
2023/07/08 01:35:01;;;;;;;1999.90;999.90;;;;;;;29.58;30.72;101711.75;5069575;28;20613;-70
2023/07/08 01:37:30;;;;;;;1999.90;999.90;;;;;;;29.39;30.73;101716.84;5070550;28;20029;-69
2023/07/08 01:39:55;;;;;;;1999.90;999.90;;;;;;;29.28;30.71;101713.13;5069399;28;20377;-69
2023/07/08 01:42:21;;;;;;;1999.90;999.90;;;;;;;29.76;30.09;101711.31;5070199;28;20028;-69
2023/07/08 01:44:50;;;;;;;1999.90;999.90;;;;;;;30.00;29.63;101708.53;5070497;28;20058;-69
2023/07/08 01:47:20;;;;;;;1999.90;999.90;;;;;;;29.75;29.67;101704.19;5069782;28;20481;-69
2023/07/08 01:49:50;;;;;;;1999.90;999.90;;;;;;;30.16;29.54;101710.88;5070407;28;20024;-69
2023/07/08 01:52:17;;;;;;;1999.90;999.90;;;;;;;29.94;29.76;101704.50;5070209;28;20028;-69
2023/07/08 01:54:43;;;;;;;1999.90;999.90;;;;;;;29.76;30.17;101712.16;5069330;28;20055;-69
2023/07/08 01:57:08;;;;;;;1999.90;999.90;;;;;;;29.54;30.12;101710.28;5069607;28;20119;-69
2023/07/08 01:59:34;;;;;;;1999.90;999.90;;;;;;;30.02;29.76;101694.94;5070171;28;20029;-69
2023/07/08 02:02:00;;;;;;;1999.90;999.90;;;;;;;29.34;30.63;101694.78;5069201;28;20362;-68
2023/07/08 02:04:26;;;;;;;1999.90;999.90;;;;;;;29.75;30.17;101688.03;5070041;28;20032;-68
2023/07/08 02:06:57;;;;;;;1999.90;999.90;;;;;;;29.50;30.53;101687.25;5069546;28;20024;-68
2023/07/08 02:09:24;;;;;;;1999.90;999.90;;;;;;;29.69;30.77;101685.81;5069678;28;20090;-68
2023/07/08 02:11:50;;;;;;;1999.90;999.90;;;;;;;29.76;30.98;101689.75;5069638;28;20143;-68
2023/07/08 02:14:16;;;;;;;1999.90;999.90;;;;;;;29.55;31.09;101685.06;5071201;28;20103;-69
2023/07/08 02:16:41;;;;;;;1999.90;999.90;;;;;;;29.12;31.30;101680.22;5069441;28;20021;-68
2023/07/08 02:19:06;;;;;;;1999.90;999.90;;;;;;;29.11;31.17;101682.06;5069345;28;20253;-67
2023/07/08 02:21:33;;;;;;;1999.90;999.90;;;;;;;28.64;32.26;101681.09;5071097;28;20028;-68
2023/07/08 02:24:00;;;;;;;1999.90;999.90;;;;;;;28.37;32.42;101670.50;5070006;28;20021;-68
2023/07/08 02:26:26;;;;;;;1999.90;999.90;;;;;;;29.21;31.30;101666.09;5070581;28;20480;-68
2023/07/08 02:28:51;;;;;;;1999.90;999.90;;;;;;;28.93;31.56;101670.88;5069105;28;20058;-69
2023/07/08 02:31:17;;;;;;;1999.90;999.90;;;;;;;28.84;31.77;101663.47;5068924;28;20560;-68
2023/07/08 02:33:42;;;;;;;1999.90;999.90;;;;;;;29.22;31.83;101672.31;5069261;28;20028;-68
2023/07/08 02:36:08;;;;;;;1999.90;999.90;;;;;;;29.40;31.12;101668.25;5068023;28;20043;-68
2023/07/08 02:38:33;;;;;;;1999.90;999.90;;;;;;;29.33;31.38;101660.75;5069494;28;20032;-68
2023/07/08 02:41:00;;;;;;;1999.90;999.90;;;;;;;29.07;31.80;101671.66;5068809;28;20056;-69
2023/07/08 02:43:25;;;;;;;1999.90;999.90;;;;;;;28.78;31.99;101661.25;5068717;28;20028;-69
2023/07/08 02:45:51;;;;;;;1999.90;999.90;;;;;;;28.99;31.75;101664.16;5069993;28;20602;-68
2023/07/08 02:48:20;;;;;;;1999.90;999.90;;;;;;;29.08;31.76;101659.91;5070468;28;20028;-69
2023/07/08 02:50:45;;;;;;;1999.90;999.90;;;;;;;29.04;31.83;101666.50;5068556;28;20024;-68
2023/07/08 02:53:12;;;;;;;1999.90;999.90;;;;;;;29.54;31.24;101661.78;5068672;28;20024;-69
2023/07/08 02:55:38;;;;;;;1999.90;999.90;;;;;;;28.75;32.28;101653.41;5068766;28;20056;-68
2023/07/08 02:58:04;;;;;;;1999.90;999.90;;;;;;;29.27;32.00;101665.63;5067925;28;20032;-69
2023/07/08 03:00:29;;;;;;;1999.90;999.90;;;;;;;29.42;30.65;101662.75;5068870;28;20032;-68
2023/07/08 03:02:55;;;;;;;1999.90;999.90;;;;;;;29.34;30.87;101675.94;5068734;28;20044;-68
2023/07/08 03:05:20;;;;;;;1999.90;999.90;;;;;;;29.32;31.02;101667.13;5068332;28;20392;-68
2023/07/08 03:07:46;;;;;;;1999.90;999.90;;;;;;;28.73;32.49;101666.13;5068998;28;20115;-68
2023/07/08 03:10:11;;;;;;;1999.90;999.90;;;;;;;29.11;31.76;101662.38;5068291;28;20480;-68
2023/07/08 03:12:36;;;;;;;1999.90;999.90;;;;;;;29.02;31.54;101671.16;5068089;28;20028;-68
2023/07/08 03:15:03;;;;;;;1999.90;999.90;;;;;;;28.75;31.95;101656.09;5068307;28;20021;-68
2023/07/08 03:17:28;;;;;;;1999.90;999.90;;;;;;;28.76;32.30;101655.13;5070274;28;20139;-68
2023/07/08 03:19:54;;;;;;;1999.90;999.90;;;;;;;28.82;32.53;101660.03;5067581;28;20040;-68
2023/07/08 03:22:19;;;;;;;1999.90;999.90;;;;;;;29.16;32.17;101664.72;5068899;28;20034;-68
2023/07/08 03:24:50;;;;;;;1999.90;999.90;;;;;;;28.92;31.97;101663.78;5070141;28;20100;-68
2023/07/08 03:27:16;;;;;;;1999.90;999.90;;;;;;;29.02;32.11;101665.78;5067742;28;20028;-68
2023/07/08 03:29:42;;;;;;;1999.90;999.90;;;;;;;28.63;32.28;101676.69;5068907;28;20032;-68
2023/07/08 03:32:11;;;;;;;1999.90;999.90;;;;;;;28.38;32.97;101666.84;5069532;28;20205;-67
2023/07/08 03:34:37;;;;;;;1999.90;999.90;;;;;;;28.39;33.30;101682.84;5069319;28;20069;-68
2023/07/08 03:37:03;;;;;;;1999.90;999.90;;;;;;;28.77;33.29;101681.91;5067767;28;20040;-68
2023/07/08 03:39:28;;;;;;;1999.90;999.90;;;;;;;28.99;33.14;101682.13;5067815;28;20480;-68
2023/07/08 03:41:54;;;;;;;1999.90;999.90;;;;;;;29.06;32.59;101678.03;5069968;28;20376;-68
2023/07/08 03:44:19;;;;;;;1999.90;999.90;;;;;;;29.08;33.38;101684.13;5068418;28;20031;-68
2023/07/08 03:46:50;;;;;;;1999.90;999.90;;;;;;;28.84;33.67;101681.44;5067689;28;20032;-68
2023/07/08 03:49:21;;;;;;;1999.90;999.90;;;;;;;28.81;32.60;101685.25;5067943;28;20113;-68
2023/07/08 03:51:48;;;;;;;1999.90;999.90;;;;;;;28.87;32.45;101679.38;5068455;28;20048;-68
2023/07/08 03:54:14;;;;;;;1999.90;999.90;;;;;;;28.89;32.38;101680.16;5067747;28;20543;-68
2023/07/08 03:56:40;;;;;;;1999.90;999.90;;;;;;;28.85;32.85;101683.16;5068533;28;20116;-68
2023/07/08 03:59:05;;;;;;;1999.90;999.90;;;;;;;28.75;32.73;101691.91;5069184;28;20032;-68
2023/07/08 04:01:31;;;;;;;1999.90;999.90;;;;;;;28.69;32.97;101686.16;5067501;28;20519;-68
2023/07/08 04:03:58;;;;;;;1999.90;999.90;;;;;;;28.88;32.79;101681.13;5067819;28;20025;-68
2023/07/08 04:06:25;;;;;;;1999.90;999.90;;;;;;;28.65;32.75;101679.28;5068271;28;20093;-69
2023/07/08 04:08:51;;;;;;;1999.90;999.90;;;;;;;28.89;32.88;101672.06;5067137;28;20025;-68
2023/07/08 04:11:19;;;;;;;1999.90;999.90;;;;;;;28.74;32.47;101673.19;5068058;28;20021;-68
2023/07/08 04:13:45;;;;;;;1999.90;999.90;;;;;;;28.02;33.64;101681.94;5068092;28;20174;-68
2023/07/08 04:16:19;;;;;;;1999.90;999.90;;;;;;;28.15;33.68;101676.56;5068193;28;20103;-68
2023/07/08 04:18:44;;;;;;;1999.90;999.90;;;;;;;28.56;33.31;101676.25;5069559;28;20483;-68
2023/07/08 04:21:09;;;;;;;1999.90;999.90;;;;;;;28.36;33.01;101674.16;5067652;28;20036;-69
2023/07/08 04:23:35;;;;;;;1999.90;999.90;;;;;;;28.67;33.25;101677.31;5067505;28;20031;-68
2023/07/08 04:26:01;;;;;;;1999.90;999.90;;;;;;;28.52;33.87;101682.84;5067480;28;20020;-68
2023/07/08 04:28:26;;;;;;;1999.90;999.90;;;;;;;28.81;33.93;101674.47;5067948;28;20032;-68
2023/07/08 04:30:52;;;;;;;1999.90;999.90;;;;;;;29.11;33.56;101676.69;5066681;28;20016;-69
2023/07/08 04:33:18;;;;;;;1999.90;999.90;;;;;;;28.67;33.50;101693.44;5070899;28;20028;-69
2023/07/08 04:35:45;;;;;;;1999.90;999.90;;;;;;;28.60;33.24;101683.13;5070970;28;20032;-68
2023/07/08 04:38:23;;;;;;;1999.90;999.90;;;;;;;28.42;33.36;101690.69;5071602;28;20021;-68
2023/07/08 04:40:50;;;;;;;1999.90;999.90;;;;;;;28.80;32.94;101680.81;5071201;28;20058;-68
2023/07/08 04:43:16;;;;;;;1999.90;999.90;;;;;;;29.02;34.12;101684.59;5072397;28;20020;-68
2023/07/08 04:45:45;;;;;;;1999.90;999.90;;;;;;;29.19;32.74;101694.09;5071589;28;20021;-69
2023/07/08 04:48:14;;;;;;;1999.90;999.90;;;;;;;29.18;32.66;101697.75;5072502;28;20017;-70
2023/07/08 04:50:44;;;;;;;1999.90;999.90;;;;;;;29.78;31.62;101696.72;5070418;28;20020;-69
2023/07/08 04:53:11;;;;;;;1999.90;999.90;;;;;;;30.08;32.01;101703.38;5071229;28;20400;-69
2023/07/08 04:55:39;;;;;;;1999.90;999.90;;;;;;;30.52;31.21;101695.44;5073088;28;20450;-69
2023/07/08 04:58:05;;;;;;;1999.90;999.90;;;;;;;30.88;29.86;101696.06;5070278;28;20117;-69
2023/07/08 05:00:30;;;;;;;1999.90;999.90;;;;;;;31.58;28.68;101688.41;5072751;28;20064;-69
2023/07/08 05:02:56;;;;;;;1999.90;999.90;;;;;;;32.18;27.91;101695.00;5072134;28;20043;-69
2023/07/08 05:05:21;;;;;;;1999.90;999.90;;;;;;;31.68;28.11;101698.44;5070485;28;20399;-69
2023/07/08 05:07:49;;;;;;;1999.90;999.90;;;;;;;32.91;26.92;101687.53;5072583;28;20027;-69
2023/07/08 05:10:15;;;;;;;1999.90;999.90;;;;;;;32.46;27.66;101688.00;5070931;28;20020;-69
2023/07/08 05:12:42;;;;;;;1999.90;999.90;;;;;;;32.60;27.32;101690.31;5070238;28;20077;-69
2023/07/08 05:15:08;;;;;;;1999.90;999.90;;;;;;;32.36;27.59;101692.53;5070598;28;20136;-69
2023/07/08 05:17:35;;;;;;;1999.90;999.90;;;;;;;32.16;27.64;101684.34;5071111;28;20070;-69
2023/07/08 05:20:00;;;;;;;1999.90;999.90;;;;;;;30.65;29.62;101689.03;5069866;28;20021;-69
2023/07/08 05:22:27;;;;;;;1999.90;999.90;;;;;;;30.67;29.87;101692.47;5070905;28;20028;-69
2023/07/08 05:24:55;;;;;;;1999.90;999.90;;;;;;;30.13;31.08;101694.97;5069563;28;20491;-69
2023/07/08 05:27:22;;;;;;;1999.90;999.90;;;;;;;30.42;30.94;101699.84;5070866;28;20024;-69
2023/07/08 05:29:49;;;;;;;1999.90;999.90;;;;;;;30.60;30.98;101692.97;5070493;28;20024;-67
2023/07/08 05:32:15;;;;;;;1999.90;999.90;;;;;;;30.83;30.83;101689.34;5069896;28;20029;-69
2023/07/08 05:34:40;;;;;;;1999.90;999.90;;;;;;;30.88;30.71;101685.28;5070645;28;20715;-69
2023/07/08 05:37:06;;;;;;;1999.90;999.90;;;;;;;30.25;31.01;101680.50;5069983;28;20451;-69
2023/07/08 05:39:32;;;;;;;1999.90;999.90;;;;;;;30.51;31.64;101687.47;5069985;28;20074;-69
2023/07/08 05:41:57;;;;;;;1999.90;999.90;;;;;;;30.01;31.65;101685.16;5070161;28;20020;-69
2023/07/08 05:44:23;;;;;;;1999.90;999.90;;;;;;;30.14;31.47;101691.25;5070343;28;20549;-69
2023/07/08 05:46:50;;;;;;;1999.90;999.90;;;;;;;29.68;32.18;101689.50;5069325;28;20028;-68
2023/07/08 05:49:15;;;;;;;1999.90;999.90;;;;;;;29.79;32.43;101686.81;5070317;28;20845;-69
2023/07/08 05:51:41;;;;;;;1999.90;999.90;;;;;;;30.18;32.37;101686.50;5071403;28;20030;-69
2023/07/08 05:54:06;;;;;;;1999.90;999.90;;;;;;;30.03;32.26;101685.88;5069030;28;20020;-70
2023/07/08 05:56:32;;;;;;;1999.90;999.90;;;;;;;29.76;32.38;101682.53;5070444;28;20186;-69
2023/07/08 05:58:57;;;;;;;1999.90;999.90;;;;;;;30.32;32.32;101678.13;5069686;28;20418;-69
2023/07/08 06:01:23;;;;;;;1999.90;999.90;;;;;;;30.32;32.01;101688.06;5069390;28;20491;-69
2023/07/08 06:03:49;;;;;;;1999.90;999.90;;;;;;;30.24;31.95;101696.75;5069552;28;20025;-69
2023/07/08 06:06:15;;;;;;;1999.90;999.90;;;;;;;30.07;32.12;101695.44;5069978;28;20499;-69
2023/07/08 06:08:40;;;;;;;1999.90;999.90;;;;;;;29.71;33.10;101692.78;5070575;28;20021;-69
2023/07/08 06:11:06;;;;;;;1999.90;999.90;;;;;;;29.81;33.42;101687.53;5070856;28;20028;-69
2023/07/08 06:13:31;;;;;;;1999.90;999.90;;;;;;;30.55;31.91;101687.09;5069853;28;20025;-69
2023/07/08 06:15:57;;;;;;;1999.90;999.90;;;;;;;29.92;32.44;101692.13;5068494;28;20115;-69
2023/07/08 06:18:22;;;;;;;1999.90;999.90;;;;;;;29.51;33.26;101686.28;5069801;28;20021;-70
2023/07/08 06:20:55;;;;;;;1999.90;999.90;;;;;;;30.66;32.06;101682.66;5069234;28;20392;-68
2023/07/08 06:23:21;;;;;;;1999.90;999.90;;;;;;;31.11;31.53;101685.22;5069022;28;20025;-69
2023/07/08 06:25:48;;;;;;;1999.90;999.90;;;;;;;32.76;29.46;101683.53;5069801;28;20031;-69
2023/07/08 06:28:14;;;;;;;1999.90;999.90;;;;;;;33.42;27.89;101688.25;5068628;28;20089;-69
2023/07/08 06:30:39;;;;;;;1999.90;999.90;;;;;;;34.45;26.05;101679.34;5069219;28;20024;-69
2023/07/08 06:33:05;;;;;;;1999.90;999.90;;;;;;;34.97;25.78;101686.88;5070205;28;20673;-69
2023/07/08 06:35:31;;;;;;;1999.90;999.90;;;;;;;36.55;23.75;101681.38;5068488;28;20032;-69
2023/07/08 06:37:57;;;;;;;1999.90;999.90;;;;;;;36.82;23.79;101677.53;5068771;28;20020;-70
2023/07/08 06:40:22;;;;;;;1999.90;999.90;;;;;;;37.05;22.80;101690.50;5069018;28;20108;-69
2023/07/08 06:42:50;;;;;;;1999.90;999.90;;;;;;;38.09;22.67;101677.06;5068349;28;20028;-70
2023/07/08 06:45:16;;;;;;;1999.90;999.90;;;;;;;38.27;21.76;101683.13;5069008;28;20085;-71
2023/07/08 06:47:41;;;;;;;1999.90;999.90;;;;;;;39.69;21.13;101682.75;5069082;28;20029;-70
2023/07/08 06:50:07;;;;;;;1999.90;999.90;;;;;;;40.58;20.19;101688.31;5067605;28;20570;-68
2023/07/08 06:52:35;;;;;;;1999.90;999.90;;;;;;;40.64;20.92;101685.66;5070223;28;20064;-69
2023/07/08 06:55:01;;;;;;;1999.90;999.90;;;;;;;39.85;20.56;101689.06;5067622;28;20127;-70
2023/07/08 06:57:28;;;;;;;1999.90;999.90;;;;;;;40.65;20.15;101681.84;5069527;28;20043;-69
2023/07/08 06:59:53;;;;;;;1999.90;999.90;;;;;;;40.12;20.18;101681.22;5069780;28;20461;-70
2023/07/08 07:02:19;;;;;;;1999.90;999.90;;;;;;;41.67;18.90;101685.25;5068844;28;20159;-69
2023/07/08 07:04:45;;;;;;;1999.90;999.90;;;;;;;41.93;18.59;101691.13;5068328;28;20034;-72
2023/07/08 07:07:11;;;;;;;1999.90;999.90;;;;;;;41.13;18.96;101694.13;5068590;28;20028;-72
2023/07/08 07:09:36;;;;;;;1999.90;999.90;;;;;;;42.30;18.01;101694.44;5070213;28;20476;-72
2023/07/08 07:12:02;;;;;;;1999.90;999.90;;;;;;;43.10;18.01;101688.28;5067601;28;20193;-72
2023/07/08 07:14:27;;;;;;;1999.90;999.90;;;;;;;42.70;18.12;101684.44;5068981;28;20078;-72
2023/07/08 07:16:53;;;;;;;1999.90;999.90;;;;;;;43.29;17.22;101673.66;5068488;28;20035;-72
2023/07/08 07:19:19;;;;;;;1999.90;999.90;;;;;;;43.60;17.53;101674.91;5067899;28;20021;-72
2023/07/08 07:21:44;;;;;;;1999.90;999.90;;;;;;;44.80;16.25;101683.69;5068557;28;20400;-72
2023/07/08 07:24:11;;;;;;;1999.90;999.90;;;;;;;44.62;16.28;101685.25;5068151;28;20031;-72
2023/07/08 07:26:37;;;;;;;1999.90;999.90;;;;;;;44.69;16.37;101679.75;5068183;28;20029;-73
2023/07/08 07:29:02;;;;;;;1999.90;999.90;;;;;;;42.46;18.23;101688.59;5068084;28;20027;-72
2023/07/08 07:31:28;;;;;;;1999.90;999.90;;;;;;;43.28;17.53;101679.38;5069433;28;20119;-72
2023/07/08 07:33:53;;;;;;;1999.90;999.90;;;;;;;44.19;16.80;101674.91;5068053;28;20086;-73
2023/07/08 07:36:19;;;;;;;1999.90;999.90;;;;;;;44.92;15.77;101673.63;5068388;28;20054;-72
2023/07/08 07:38:45;;;;;;;1999.90;999.90;;;;;;;44.37;16.49;101665.94;5067768;28;20110;-72
2023/07/08 07:41:12;;;;;;;1999.90;999.90;;;;;;;44.52;16.13;101680.25;5067918;28;20028;-72
2023/07/08 07:43:38;;;;;;;1999.90;999.90;;;;;;;44.39;17.19;101672.94;5068492;28;20044;-73
2023/07/08 07:46:05;;;;;;;1999.90;999.90;;;;;;;45.12;15.96;101672.63;5067173;28;20117;-72
2023/07/08 07:48:31;;;;;;;1999.90;999.90;;;;;;;43.93;16.71;101665.72;5068104;28;20375;-72
2023/07/08 07:50:57;;;;;;;1999.90;999.90;;;;;;;44.30;16.45;101665.97;5069032;28;20028;-72
2023/07/08 07:53:22;;;;;;;1999.90;999.90;;;;;;;44.82;16.97;101662.25;5069201;28;20032;-72
2023/07/08 07:56:08;;;;;;;1999.90;999.90;;;;;;;44.96;15.69;101662.97;5068086;28;20381;-72
2023/07/08 07:58:34;;;;;;;1999.90;999.90;;;;;;;44.66;15.88;101663.63;5067774;28;20036;-73
2023/07/08 08:01:00;;;;;;;1999.90;999.90;;;;;;;45.19;16.08;101671.50;5068187;28;20033;-72
2023/07/08 08:03:25;;;;;;;1999.90;999.90;;;;;;;44.86;16.35;101680.00;5069453;28;20032;-72
2023/07/08 08:05:51;;;;;;;1999.90;999.90;;;;;;;45.70;15.96;101679.66;5067577;28;20058;-73
2023/07/08 08:08:16;;;;;;;1999.90;999.90;;;;;;;45.59;15.63;101678.53;5070267;28;20110;-72
2023/07/08 08:10:43;;;;;;;1999.90;999.90;;;;;;;45.66;15.95;101684.81;5073633;28;20020;-72
2023/07/08 08:13:09;;;;;;;1999.90;999.90;;;;;;;45.86;16.52;101684.59;5071601;28;20082;-73
2023/07/08 08:15:35;;;;;;;1999.90;999.90;;;;;;;45.62;15.62;101683.59;5071446;28;20396;-72
2023/07/08 08:18:01;;;;;;;1999.90;999.90;;;;;;;46.64;14.99;101689.53;5071325;28;20503;-72
2023/07/08 08:20:28;;;;;;;1999.90;999.90;;;;;;;46.43;14.35;101690.88;5071831;28;20029;-72
2023/07/08 08:22:54;;;;;;;1999.90;999.90;;;;;;;46.63;14.64;101688.66;5070684;28;20035;-72
2023/07/08 08:25:21;;;;;;;1999.90;999.90;;;;;;;46.67;14.17;101691.81;5073438;28;20021;-72
2023/07/08 08:27:52;;;;;;;1999.90;999.90;;;;;;;46.28;14.89;101694.06;5072542;28;20048;-72
2023/07/08 08:30:17;;;;;;;1999.90;999.90;;;;;;;46.61;15.64;101701.88;5071494;28;20142;-72
2023/07/08 08:32:43;;;;;;;1999.90;999.90;;;;;;;46.42;14.71;101694.72;5071915;28;20138;-72
2023/07/08 08:35:09;;;;;;;1999.90;999.90;;;;;;;45.64;15.46;101697.97;5070689;28;20197;-73
2023/07/08 08:37:34;;;;;;;1999.90;999.90;;;;;;;47.39;14.28;101691.66;5071619;28;20039;-72
2023/07/08 08:40:00;;;;;;;1999.90;999.90;;;;;;;46.27;15.36;101704.28;5070883;28;20474;-72
2023/07/08 08:42:42;;;;;;;1999.90;999.90;;;;;;;47.13;15.19;101703.19;5070726;28;20029;-72
2023/07/08 08:45:10;;;;;;;;;;;;;;;47.24;15.52;101696.81;5071155;28;20467;-72
2023/07/08 08:47:43;;;;;;;1999.90;999.90;;;;;;;47.83;14.30;101695.91;5072713;28;19920;-73
2023/07/08 08:50:24;;;;;;;1999.90;999.90;;;;;;;47.23;15.17;101703.44;5069941;28;20196;-72
2023/07/08 08:52:51;;;;;;;1999.90;999.90;;;;;;;46.86;13.98;101696.16;5070953;28;20123;-72
2023/07/08 08:55:17;;;;;;;1999.90;999.90;;;;;;;46.07;15.27;101690.69;5071273;28;20055;-72
2023/07/08 08:57:57;;;;;;;1999.90;999.90;;;;;;;46.86;14.57;101681.50;5070376;28;20035;-72
2023/07/08 09:00:37;;;;;;;1999.90;999.90;;;;;;;46.23;15.25;101683.69;5071121;28;20032;-72
2023/07/08 09:03:18;;;;;;;1999.90;999.90;;;;;;;46.12;15.23;101676.19;5070059;28;20380;-72
2023/07/08 09:05:46;;;;;;;1999.90;999.90;;;;;;;46.39;15.50;101685.81;5071197;28;20024;-72
2023/07/08 09:08:23;;;;;;;1999.90;999.90;;;;;;;46.84;14.98;101689.19;5071953;28;20024;-72
2023/07/08 09:10:57;;;;;;;1999.90;999.90;;;;;;;44.71;17.27;101695.00;5069873;28;20025;-72
2023/07/08 09:13:35;;;;;;;1999.90;999.90;;;;;;;46.53;16.93;101694.75;5070970;28;20032;-72
2023/07/08 09:16:15;;;;;;;1999.90;999.90;;;;;;;46.44;15.53;101695.31;5070396;28;20035;-73
2023/07/08 09:18:52;;;;;;;1999.90;999.90;;;;;;;47.55;15.44;101689.22;5069687;28;20039;-72
2023/07/08 09:21:27;;;;;;;1999.90;999.90;;;;;;;47.19;15.13;101702.22;5070703;28;20399;-73
2023/07/08 09:24:00;;;;;;;1999.90;999.90;;;;;;;46.99;14.75;101700.63;5070107;28;20079;-71
2023/07/08 09:26:29;;;;;;;1999.90;999.90;;;;;;;47.66;14.70;101696.66;5070797;28;20528;-72
2023/07/08 09:28:55;;;;;;;1999.90;999.90;;;;;;;45.83;16.64;101695.22;5071447;28;20040;-72
2023/07/08 09:31:31;;;;;;;1999.90;999.90;;;;;;;47.33;15.63;101698.13;5070234;28;20028;-73
2023/07/08 09:34:18;;;;;;;1999.90;999.90;;;;;;;47.22;14.81;101701.75;5070520;28;20040;-72
2023/07/08 09:36:51;;;;;;;1999.90;999.90;;;;;;;46.11;15.55;101696.59;5070715;28;20020;-72
2023/07/08 09:39:20;;;;;;;1999.90;999.90;;;;;;;47.51;14.97;101688.84;5070028;28;20028;-72
2023/07/08 09:41:49;;;;;;;1999.90;999.90;;;;;;;47.27;14.53;101703.78;5070258;28;20067;-72
2023/07/08 09:44:28;;;;;;;1999.90;999.90;;;;;;;47.27;15.54;101698.25;5070468;28;20143;-72
2023/07/08 09:46:55;;;;;;;1999.90;999.90;;;;;;;46.95;16.17;101695.81;5070558;28;20039;-72
2023/07/08 09:49:44;;;;;;;1999.90;999.90;;;;;;;45.55;16.85;101688.34;5070187;28;20506;-72
2023/07/08 09:52:12;;;;;;;1999.90;999.90;;;;;;;45.56;16.70;101690.00;5069286;28;20111;-73
2023/07/08 09:54:40;;;;;;;1999.90;999.90;;;;;;;46.11;15.68;101693.84;5069832;28;20041;-72
2023/07/08 09:57:33;;;;;;;1999.90;999.90;;;;;;;47.67;15.41;101678.97;5069744;28;20068;-73
2023/07/08 10:00:03;;;;;;;1999.90;999.90;;;;;;;46.69;16.37;101692.41;5066004;28;20404;-72
2023/07/08 10:02:54;;;;;;;1999.90;999.90;;;;;;;46.99;16.08;101686.81;5070142;28;20054;-73
2023/07/08 10:05:26;;;;;;;1999.90;999.90;;;;;;;46.23;15.37;101684.50;5069971;28;20024;-73
2023/07/08 10:07:56;;;;;;;1999.90;999.90;;;;;;;44.86;16.66;101685.53;5070188;28;20035;-72
2023/07/08 10:10:30;;;;;;;1999.90;999.90;;;;;;;44.55;17.60;101684.47;5069996;28;20567;-73
2023/07/08 10:12:59;;;;;;;1999.90;999.90;;;;;;;44.35;17.47;101677.19;5069534;28;20429;-72
2023/07/08 10:15:38;;;;;;;1999.90;999.90;;;;;;;44.01;17.93;101673.72;5069175;28;20029;-72
2023/07/08 10:18:04;;;;;;;1999.90;999.90;;;;;;;45.69;16.96;101678.81;5070556;28;20107;-72
2023/07/08 10:20:51;;;;;;;1999.90;999.90;;;;;;;44.49;17.67;101671.56;5068949;28;20147;-72
2023/07/08 10:23:36;;;;;;;1999.90;999.90;;;;;;;44.90;17.66;101675.75;5069794;28;20041;-73
2023/07/08 10:26:30;;;;;;;1999.90;999.90;;;;;;;46.55;16.06;101675.16;5054710;28;20184;-72
2023/07/08 10:29:18;;;;;;;1999.90;999.90;;;;;;;46.27;16.29;101687.69;5065379;28;20044;-73
2023/07/08 10:32:07;;;;;;;1999.90;999.90;;;;;;;46.88;15.79;101690.38;5069302;28;20407;-73
2023/07/08 10:34:39;;;;;;;1999.90;999.90;;;;;;;46.12;15.89;101688.09;5068625;28;20529;-72
2023/07/08 10:37:22;;;;;;;1999.90;999.90;;;;;;;46.33;15.81;101689.53;5068977;28;20539;-72
2023/07/08 10:39:59;;;;;;;1999.90;999.90;;;;;;;46.65;16.25;101688.41;5069093;28;20025;-70
2023/07/08 10:43:09;;;;;;;1999.90;999.90;;;;;;;46.46;15.61;101698.69;5068551;28;20032;-70
2023/07/08 10:45:58;;;;;;;1999.90;999.90;;;;;;;47.15;15.38;101706.56;5069240;28;20021;-72
2023/07/08 10:48:46;;;;;;;1999.90;999.90;;;;;;;46.04;16.08;101686.50;5069903;28;20029;-72
2023/07/08 10:51:17;;;;;;;1999.90;999.90;;;;;;;46.53;16.65;101691.16;5029650;28;20039;-72
2023/07/08 10:54:04;;;;;;;1999.90;999.90;;;;;;;45.56;16.42;101687.25;5069108;28;20028;-72
2023/07/08 10:56:51;;;;;;;1999.90;999.90;;;;;;;45.97;16.66;101685.72;5068186;28;20412;-72